Time;durP1;ratioP1;P1;durP2;ratioP2;P2;SDS_P1;SDS_P2;PMS_P1;PMS_P2;Temp;Humidity;BMP_temperature;BMP_pressure;BME280_temperature;BME280_humidity;BME280_pressure;Samples;Min_cycle;Max_cycle;Signal;HPM_P1;HPM_P2
2023/08/26 00:01:29;;;;;;;17.20;12.87;;;;;;;18.02;100.00;100179.56;4998401;28;20036;-84
2023/08/26 00:03:54;;;;;;;16.70;12.03;;;;;;;18.04;100.00;100182.88;5004609;28;20033;-84
2023/08/26 00:06:20;;;;;;;17.47;13.77;;;;;;;18.08;100.00;100184.06;5005957;28;20793;-85
2023/08/26 00:08:45;;;;;;;21.47;13.93;;;;;;;18.04;100.00;100186.38;4987949;28;20547;-86
2023/08/26 00:11:10;;;;;;;19.10;14.03;;;;;;;18.04;100.00;100178.28;4999847;28;20048;-86
2023/08/26 00:13:36;;;;;;;23.07;15.83;;;;;;;18.01;100.00;100186.84;4983082;28;20031;-86
2023/08/26 00:16:01;;;;;;;21.07;15.20;;;;;;;18.08;100.00;100194.88;4999291;28;20034;-85
2023/08/26 00:18:26;;;;;;;23.33;16.30;;;;;;;18.03;100.00;100182.06;5007450;28;20026;-85
2023/08/26 00:20:52;;;;;;;26.23;17.20;;;;;;;17.98;100.00;100179.22;4990273;28;20073;-85
2023/08/26 00:23:17;;;;;;;27.93;18.03;;;;;;;18.05;100.00;100190.75;4971236;28;20042;-85
2023/08/26 00:25:43;;;;;;;28.53;17.57;;;;;;;18.06;100.00;100194.28;4976676;28;20042;-85
2023/08/26 00:28:08;;;;;;;29.50;18.87;;;;;;;18.09;100.00;100200.03;4977687;28;20121;-85
2023/08/26 00:30:33;;;;;;;39.57;21.73;;;;;;;18.09;100.00;100201.91;4991980;28;20480;-85
2023/08/26 00:32:59;;;;;;;32.67;20.67;;;;;;;18.14;100.00;100207.47;4990291;28;20065;-85
2023/08/26 00:35:25;;;;;;;36.20;21.25;;;;;;;18.18;100.00;100215.97;4985574;28;20037;-84
2023/08/26 00:37:51;;;;;;;31.85;21.00;;;;;;;18.05;100.00;100204.25;4998362;28;20034;-85
2023/08/26 00:40:17;;;;;;;33.92;20.67;;;;;;;18.14;100.00;100212.88;4992024;28;20034;-85
2023/08/26 00:42:43;;;;;;;39.03;21.92;;;;;;;18.19;100.00;100209.50;4976428;28;20524;-85
2023/08/26 00:45:08;;;;;;;44.00;23.58;;;;;;;18.13;100.00;100203.94;4997869;28;20022;-86
2023/08/26 00:47:37;;;;;;;45.17;24.02;;;;;;;18.12;100.00;100204.16;4985644;28;20034;-85
2023/08/26 00:50:03;;;;;;;46.65;23.95;;;;;;;18.11;100.00;100207.94;4985063;28;20488;-85
2023/08/26 00:52:30;;;;;;;46.28;23.98;;;;;;;18.21;100.00;100215.50;4961534;28;20041;-84
2023/08/26 00:54:55;;;;;;;48.22;25.98;;;;;;;18.07;100.00;100210.25;4991804;28;20045;-85
2023/08/26 00:57:21;;;;;;;40.22;22.00;;;;;;;18.12;100.00;100215.81;4967807;28;20417;-86
2023/08/26 00:59:46;;;;;;;41.92;24.27;;;;;;;18.16;100.00;100215.34;4977133;28;20113;-85
2023/08/26 01:02:12;;;;;;;52.08;25.75;;;;;;;18.16;100.00;100216.19;4977098;28;20656;-86
2023/08/26 01:04:37;;;;;;;47.72;26.05;;;;;;;18.11;100.00;100213.31;4978471;28;20047;-86
2023/08/26 01:07:06;;;;;;;40.40;23.97;;;;;;;18.09;100.00;100213.53;4989850;28;20125;-86
2023/08/26 01:09:32;;;;;;;50.25;25.67;;;;;;;18.00;100.00;100201.38;4993799;28;20057;-85
2023/08/26 01:12:17;;;;;;;50.45;24.77;;;;;;;18.16;100.00;100218.88;4981623;28;20034;-85
2023/08/26 01:15:00;;;;;;;41.55;22.60;;;;;;;18.21;100.00;100212.81;4987593;28;20041;-85
2023/08/26 01:17:25;;;;;;;40.30;22.92;;;;;;;18.16;100.00;100218.06;4978598;28;20948;-86
2023/08/26 01:19:54;;;;;;;49.25;27.55;;;;;;;18.14;100.00;100212.88;4962448;28;20126;-86
2023/08/26 01:22:23;;;;;;;59.05;26.88;;;;;;;18.08;100.00;100203.81;4969038;28;20037;-86
2023/08/26 01:24:49;;;;;;;42.55;23.92;;;;;;;18.18;100.00;100214.06;4987901;28;20049;-86
2023/08/26 01:27:15;;;;;;;55.25;28.15;;;;;;;18.10;100.00;100209.81;4960064;28;20035;-86
2023/08/26 01:29:40;;;;;;;49.70;26.30;;;;;;;18.13;100.00;100209.34;4985014;28;20030;-86
2023/08/26 01:32:27;;;;;;;48.10;27.03;;;;;;;18.06;100.00;100205.91;4987470;28;20069;-86
2023/08/26 01:34:56;;;;;;;52.83;28.55;;;;;;;18.15;100.00;100211.84;4950400;28;20030;-85
2023/08/26 01:37:23;;;;;;;49.13;25.90;;;;;;;18.10;100.00;100207.09;4991478;28;20501;-84
2023/08/26 01:39:50;;;;;;;62.47;29.42;;;;;;;18.11;100.00;100206.03;4992469;28;20667;-85
2023/08/26 01:42:19;;;;;;;61.90;31.00;;;;;;;18.12;100.00;100210.41;4976013;28;20031;-86
2023/08/26 01:44:45;;;;;;;73.78;31.75;;;;;;;18.13;100.00;100214.75;5011804;28;20034;-84
2023/08/26 01:47:10;;;;;;;;;;;;;;;18.12;100.00;100205.00;4984917;28;20026;-85
2023/08/26 01:49:36;;;;;;;75.15;34.13;;;;;;;18.18;100.00;100205.16;4992833;28;20507;-86
2023/08/26 01:52:01;;;;;;;62.83;30.10;;;;;;;18.14;100.00;100200.22;4990658;28;20026;-85
2023/08/26 01:54:27;;;;;;;79.73;35.77;;;;;;;18.19;100.00;100191.44;4975302;28;20049;-85
2023/08/26 01:56:52;;;;;;;109.57;38.50;;;;;;;18.23;100.00;100197.19;4969787;28;20046;-85
2023/08/26 01:59:17;;;;;;;83.67;35.17;;;;;;;18.21;100.00;100188.47;4983128;28;20030;-86
2023/08/26 02:01:43;;;;;;;68.50;31.87;;;;;;;18.20;100.00;100192.25;4956292;28;20034;-86
2023/08/26 02:04:08;;;;;;;79.63;36.90;;;;;;;18.17;100.00;100181.88;4963393;28;20035;-85
2023/08/26 02:06:34;;;;;;;85.35;39.50;;;;;;;18.24;100.00;100198.81;4994368;28;20485;-85
2023/08/26 02:09:00;;;;;;;133.70;43.90;;;;;;;18.26;100.00;100200.28;4995057;28;20068;-85
2023/08/26 02:11:25;;;;;;;81.00;37.30;;;;;;;18.03;100.00;100192.03;4986431;28;20084;-85
2023/08/26 02:13:53;;;;;;;121.93;42.78;;;;;;;18.17;100.00;100198.09;4987239;28;20048;-85
2023/08/26 02:16:19;;;;;;;75.83;36.07;;;;;;;18.10;100.00;100193.59;4983347;28;20034;-84
2023/08/26 02:18:46;;;;;;;80.25;38.58;;;;;;;17.96;100.00;100175.91;4988208;28;20050;-86
2023/08/26 02:21:12;;;;;;;82.68;38.05;;;;;;;18.07;100.00;100191.31;4970950;28;20026;-84
2023/08/26 02:23:37;;;;;;;84.65;37.72;;;;;;;18.10;100.00;100196.31;4984094;28;20179;-85
2023/08/26 02:26:02;;;;;;;94.97;40.63;;;;;;;18.06;100.00;100188.88;5003770;28;20069;-85
2023/08/26 02:28:28;;;;;;;91.70;40.60;;;;;;;18.08;100.00;100184.91;4995091;28;20022;-86
2023/08/26 02:30:54;;;;;;;;;;;;;;;18.12;100.00;100188.81;4978163;28;20023;-85
2023/08/26 02:33:19;;;;;;;82.38;35.80;;;;;;;18.05;100.00;100195.31;4989304;28;19920;-86
2023/08/26 02:35:46;;;;;;;71.45;33.50;;;;;;;18.09;100.00;100191.94;4994540;28;20057;-85
2023/08/26 02:38:14;;;;;;;120.78;44.38;;;;;;;18.07;100.00;100187.81;5010883;28;20040;-85
2023/08/26 02:40:39;;;;;;;64.78;32.80;;;;;;;18.10;100.00;100176.56;4980187;28;20097;-86
2023/08/26 02:43:05;;;;;;;92.57;39.30;;;;;;;18.03;100.00;100173.94;5002068;28;20054;-86
2023/08/26 02:45:30;;;;;;;79.53;35.80;;;;;;;18.02;100.00;100168.75;4990489;28;20381;-85
2023/08/26 02:47:57;;;;;;;77.03;34.65;;;;;;;17.97;100.00;100171.31;4994705;28;20080;-84
2023/08/26 02:50:24;;;;;;;70.50;34.63;;;;;;;17.99;100.00;100175.44;4994234;28;20034;-84
2023/08/26 02:52:50;;;;;;;64.63;31.15;;;;;;;18.00;100.00;100166.28;4986413;28;20696;-85
2023/08/26 02:55:15;;;;;;;70.25;32.60;;;;;;;17.90;100.00;100157.88;5005046;28;20048;-84
2023/08/26 02:57:41;;;;;;;70.05;32.28;;;;;;;17.88;100.00;100166.19;4987903;28;20030;-85
2023/08/26 03:00:07;;;;;;;61.17;30.02;;;;;;;17.90;100.00;100163.28;4994839;28;20034;-84
2023/08/26 03:02:34;;;;;;;72.35;30.67;;;;;;;17.84;100.00;100156.91;4992512;28;20433;-86
2023/08/26 03:04:59;;;;;;;56.75;28.02;;;;;;;17.75;100.00;100147.44;5017100;22;20049;-79
2023/08/26 03:07:25;;;;;;;61.07;28.00;;;;;;;17.72;100.00;100148.72;4965033;28;20038;-78
2023/08/26 03:09:50;;;;;;;71.00;31.73;;;;;;;17.67;100.00;100142.31;5007127;28;20038;-78
2023/08/26 03:12:15;;;;;;;53.80;25.17;;;;;;;17.72;100.00;100142.47;4996965;28;20041;-78
2023/08/26 03:14:41;;;;;;;49.47;24.93;;;;;;;17.69;100.00;100143.75;5009049;28;20030;-78
2023/08/26 03:17:06;;;;;;;52.00;25.23;;;;;;;17.67;100.00;100145.84;4995064;28;20030;-78
2023/08/26 03:19:32;;;;;;;70.37;28.40;;;;;;;17.71;100.00;100141.66;5007499;28;20399;-78
2023/08/26 03:21:58;;;;;;;58.20;25.98;;;;;;;17.71;100.00;100144.34;4997634;28;20477;-79
2023/08/26 03:24:23;;;;;;;60.43;26.67;;;;;;;17.65;100.00;100145.25;5030731;28;20030;-78
2023/08/26 03:26:49;;;;;;;65.35;28.05;;;;;;;17.69;100.00;100132.94;5008495;28;20955;-79
2023/08/26 03:29:14;;;;;;;61.67;27.97;;;;;;;17.79;100.00;100134.28;4991702;28;20037;-78
2023/08/26 03:31:43;;;;;;;48.85;25.67;;;;;;;17.79;100.00;100137.00;4974503;28;20033;-78
2023/08/26 03:34:10;;;;;;;67.55;30.35;;;;;;;17.70;100.00;100118.41;4990164;28;20916;-78
2023/08/26 03:36:35;;;;;;;;;;;;;;;17.79;100.00;100135.13;5005300;28;20038;-77
2023/08/26 03:39:03;;;;;;;75.13;32.92;;;;;;;17.76;100.00;100132.06;4999898;28;19917;-78
2023/08/26 03:41:28;;;;;;;62.50;29.07;;;;;;;17.72;100.00;100135.22;4988687;28;20055;-77
2023/08/26 03:43:54;;;;;;;75.63;32.63;;;;;;;17.73;100.00;100136.84;4995701;28;20277;-78
2023/08/26 03:46:19;;;;;;;58.55;28.10;;;;;;;17.71;100.00;100120.03;4995389;28;20034;-78
2023/08/26 03:48:46;;;;;;;65.53;28.30;;;;;;;17.66;100.00;100132.59;4997927;28;20046;-77
2023/08/26 03:51:11;;;;;;;52.57;27.27;;;;;;;17.70;100.00;100131.09;4986965;28;20080;-79
2023/08/26 03:53:36;;;;;;;66.80;30.13;;;;;;;17.70;100.00;100139.19;4997812;28;20448;-78
2023/08/26 03:56:03;;;;;;;68.17;32.00;;;;;;;17.66;100.00;100121.78;5006453;28;20091;-76
2023/08/26 03:58:28;;;;;;;70.50;31.00;;;;;;;17.66;100.00;100122.59;5001516;28;20022;-77
2023/08/26 04:01:01;;;;;;;71.23;33.50;;;;;;;17.68;100.00;100128.59;4997744;28;20480;-78
2023/08/26 04:03:26;;;;;;;69.57;34.03;;;;;;;17.66;100.00;100133.41;4996457;28;20129;-77
2023/08/26 04:06:03;;;;;;;73.40;35.03;;;;;;;17.68;100.00;100135.88;4994477;28;20121;-77
2023/08/26 04:08:29;;;;;;;77.00;35.20;;;;;;;17.77;100.00;100139.94;4971526;28;20482;-77
2023/08/26 04:10:56;;;;;;;75.07;36.50;;;;;;;17.78;100.00;100146.97;4990160;28;20034;-78
2023/08/26 04:13:24;;;;;;;72.40;33.13;;;;;;;17.72;100.00;100140.63;4983628;28;20034;-77
2023/08/26 04:15:53;;;;;;;69.88;33.55;;;;;;;17.79;100.00;100147.78;4984902;28;20031;-78
2023/08/26 04:18:20;;;;;;;87.30;37.35;;;;;;;17.74;100.00;100143.06;4985594;28;20045;-77
2023/08/26 04:20:45;;;;;;;88.15;38.78;;;;;;;17.75;100.00;100143.88;4974785;28;20070;-77
2023/08/26 04:23:11;;;;;;;100.00;40.73;;;;;;;17.69;100.00;100142.91;4980658;28;20026;-77
2023/08/26 04:25:37;;;;;;;86.10;36.80;;;;;;;17.61;100.00;100132.44;4981630;28;20201;-77
2023/08/26 04:28:03;;;;;;;95.05;39.67;;;;;;;17.50;100.00;100129.41;4974171;28;20319;-77
2023/08/26 04:30:28;;;;;;;90.78;37.40;;;;;;;17.58;100.00;100138.25;4982053;28;20150;-77
2023/08/26 04:32:53;;;;;;;82.00;38.33;;;;;;;17.59;100.00;100140.75;4986621;28;20476;-76
2023/08/26 04:35:19;;;;;;;84.90;36.57;;;;;;;17.57;100.00;100132.03;4979472;28;20033;-77
2023/08/26 04:37:44;;;;;;;81.27;33.80;;;;;;;17.52;100.00;100127.31;4988117;28;20040;-77
2023/08/26 04:40:13;;;;;;;76.60;35.50;;;;;;;17.45;100.00;100129.25;4983424;28;20050;-76
2023/08/26 04:42:39;;;;;;;79.40;33.97;;;;;;;17.52;100.00;100127.31;4981142;28;20584;-77
2023/08/26 04:45:05;;;;;;;73.07;33.65;;;;;;;17.51;100.00;100136.47;4989677;28;20477;-77
2023/08/26 04:47:30;;;;;;;;;;;;;;;17.57;100.00;100134.75;4982131;28;20529;-77
2023/08/26 04:49:56;;;;;;;74.00;33.05;;;;;;;17.58;100.00;100128.28;4988018;28;19910;-77
2023/08/26 04:52:21;;;;;;;63.72;30.63;;;;;;;17.57;100.00;100123.13;4998317;28;20026;-76
2023/08/26 04:54:47;;;;;;;67.07;30.00;;;;;;;17.44;100.00;100110.56;4980900;28;20641;-76
2023/08/26 04:57:12;;;;;;;60.10;29.33;;;;;;;17.54;100.00;100119.00;4981337;28;20461;-77
2023/08/26 04:59:37;;;;;;;66.00;31.07;;;;;;;17.47;100.00;100107.44;4984778;28;20765;-76
2023/08/26 05:02:07;;;;;;;74.87;30.90;;;;;;;17.51;100.00;100114.88;4976333;28;20085;-76
2023/08/26 05:04:33;;;;;;;65.75;29.65;;;;;;;17.46;100.00;100112.00;4986320;28;20057;-76
2023/08/26 05:06:58;;;;;;;59.88;30.08;;;;;;;17.52;100.00;100121.91;4991349;28;20840;-76
2023/08/26 05:09:24;;;;;;;65.00;31.40;;;;;;;17.56;100.00;100119.59;4993820;28;20080;-77
2023/08/26 05:11:49;;;;;;;66.22;32.50;;;;;;;17.55;100.00;100109.84;5000175;28;20552;-76
2023/08/26 05:14:15;;;;;;;65.00;29.20;;;;;;;17.61;100.00;100118.94;4984192;28;20124;-76
2023/08/26 05:16:40;;;;;;;63.37;31.67;;;;;;;17.58;100.00;100120.19;5001347;28;20033;-76
2023/08/26 05:19:05;;;;;;;64.40;30.57;;;;;;;17.52;100.00;100110.28;4993153;28;20026;-77
2023/08/26 05:21:31;;;;;;;64.77;29.40;;;;;;;17.57;100.00;100110.44;4984549;28;20431;-75
2023/08/26 05:23:58;;;;;;;67.57;31.95;;;;;;;17.56;100.00;100119.59;4968720;28;20536;-76
2023/08/26 05:26:24;;;;;;;70.13;31.27;;;;;;;17.61;100.00;100114.34;4995186;28;20286;-76
2023/08/26 05:28:50;;;;;;;67.57;32.60;;;;;;;17.65;100.00;100123.66;5004481;28;20473;-75
2023/08/26 05:31:15;;;;;;;66.25;30.75;;;;;;;17.57;100.00;100118.53;4991055;28;20108;-77
2023/08/26 05:33:41;;;;;;;77.15;34.20;;;;;;;17.54;100.00;100116.31;5001060;28;20205;-76
2023/08/26 05:36:06;;;;;;;59.37;29.13;;;;;;;17.63;100.00;100120.34;4984779;28;20034;-76
2023/08/26 05:38:32;;;;;;;69.53;32.47;;;;;;;17.72;100.00;100115.47;4994247;28;20472;-76
2023/08/26 05:40:57;;;;;;;63.83;32.07;;;;;;;17.80;100.00;100111.66;5003524;28;20034;-76
2023/08/26 05:43:22;;;;;;;72.57;35.03;;;;;;;17.82;100.00;100105.00;4997260;28;20085;-76
2023/08/26 05:45:48;;;;;;;68.33;32.83;;;;;;;17.95;100.00;100108.59;4975862;28;20109;-76
2023/08/26 05:48:13;;;;;;;67.87;31.83;;;;;;;18.05;100.00;100120.53;4968571;28;20042;-76
2023/08/26 05:50:39;;;;;;;74.27;33.70;;;;;;;17.99;100.00;100117.91;4995350;28;20030;-76
2023/08/26 05:53:04;;;;;;;74.67;35.70;;;;;;;18.03;100.00;100121.81;4992431;28;20038;-75
2023/08/26 05:55:30;;;;;;;70.00;33.47;;;;;;;17.99;100.00;100124.13;4986058;28;20022;-76
2023/08/26 05:57:56;;;;;;;72.60;33.83;;;;;;;17.95;100.00;100122.09;5000800;28;20053;-75
2023/08/26 06:00:25;;;;;;;70.25;34.15;;;;;;;17.97;100.00;100134.31;5032952;23;20477;-91
2023/08/26 06:02:51;;;;;;;66.70;33.17;;;;;;;17.95;100.00;100130.22;4974478;28;20116;-92
2023/08/26 06:05:18;;;;;;;81.53;36.50;;;;;;;17.90;100.00;100128.19;5026458;28;20037;-92
2023/08/26 06:07:46;;;;;;;71.25;33.88;;;;;;;18.03;100.00;100135.31;4996115;28;20096;-93
2023/08/26 06:10:13;;;;;;;67.57;33.30;;;;;;;17.91;100.00;100133.38;4984211;28;20033;-92
2023/08/26 06:12:38;;;;;;;68.97;33.53;;;;;;;17.97;100.00;100128.09;4991412;28;20033;-92
2023/08/26 06:15:07;;;;;;;70.10;32.17;;;;;;;18.42;100.00;100144.75;4986580;28;20022;-92
2023/08/26 06:17:34;;;;;;;71.32;32.83;;;;;;;18.53;100.00;100146.69;4999105;28;20038;-92
2023/08/26 06:20:00;;;;;;;67.05;34.03;;;;;;;18.51;100.00;100134.47;4974263;28;20157;-91
2023/08/26 06:22:25;;;;;;;66.60;32.83;;;;;;;18.56;100.00;100138.13;4995705;28;20508;-93
2023/08/26 06:24:51;;;;;;;53.47;28.60;;;;;;;18.14;100.00;100119.16;4992838;28;20037;-92
2023/08/26 06:27:17;;;;;;;54.13;30.77;;;;;;;18.68;100.00;100129.22;4995798;28;20037;-94
2023/08/26 06:29:55;;;;;;;52.27;29.40;;;;;;;19.20;100.00;100140.31;4986934;28;20022;-92
2023/08/26 06:32:21;;;;;;;54.50;29.02;;;;;;;19.11;100.00;100133.59;5015221;28;20053;-94
2023/08/26 06:34:47;;;;;;;49.90;26.30;;;;;;;19.33;100.00;100150.88;5008584;22;20066;-77
2023/08/26 06:37:14;;;;;;;45.60;26.40;;;;;;;19.22;100.00;100146.28;4975916;28;20061;-77
2023/08/26 06:39:39;;;;;;;48.63;27.50;;;;;;;18.91;100.00;100153.66;4983317;28;20150;-77
2023/08/26 06:42:05;;;;;;;46.03;26.80;;;;;;;19.06;100.00;100163.19;4982069;28;20122;-77
2023/08/26 06:44:37;;;;;;;51.85;29.48;;;;;;;18.91;100.00;100164.47;4950578;28;20027;-76
2023/08/26 06:47:05;;;;;;;47.03;26.80;;;;;;;19.29;100.00;100184.91;4966490;28;20034;-76
2023/08/26 06:49:31;;;;;;;44.10;26.52;;;;;;;19.21;100.00;100177.13;4975762;28;20077;-77
2023/08/26 06:51:56;;;;;;;39.90;25.27;;;;;;;19.71;100.00;100168.56;4962969;28;20122;-77
2023/08/26 06:54:21;;;;;;;42.80;23.43;;;;;;;19.75;100.00;100168.94;4973249;28;20047;-76
2023/08/26 06:56:47;;;;;;;34.17;20.80;;;;;;;19.93;100.00;100173.38;4973894;28;20030;-77
2023/08/26 06:59:12;;;;;;;37.73;21.27;;;;;;;19.67;100.00;100175.50;4958709;28;20038;-76
2023/08/26 07:01:37;;;;;;;36.30;21.50;;;;;;;19.74;100.00;100186.25;4975176;28;20490;-77
2023/08/26 07:04:06;;;;;;;39.07;23.57;;;;;;;19.98;100.00;100187.84;4966732;28;20130;-77
2023/08/26 07:06:32;;;;;;;34.47;21.55;;;;;;;20.07;100.00;100177.47;4958050;28;20023;-76
2023/08/26 07:08:58;;;;;;;31.30;18.80;;;;;;;20.38;100.00;100178.09;4976767;28;20037;-76
2023/08/26 07:11:23;;;;;;;36.03;20.03;;;;;;;20.21;100.00;100159.88;4940419;28;20484;-77
2023/08/26 07:13:48;;;;;;;26.30;17.47;;;;;;;20.61;100.00;100153.63;4968753;28;20484;-77
2023/08/26 07:16:14;;;;;;;26.87;17.73;;;;;;;20.21;100.00;100132.78;4967700;28;20082;-77
2023/08/26 07:18:39;;;;;;;30.33;16.97;;;;;;;20.03;100.00;100131.06;4945000;28;20344;-77
2023/08/26 07:21:05;;;;;;;25.80;16.07;;;;;;;20.12;100.00;100136.94;4959744;28;20039;-77
2023/08/26 07:23:32;;;;;;;25.53;16.10;;;;;;;20.69;100.00;100117.16;4957415;28;20038;-77
2023/08/26 07:25:57;;;;;;;28.80;16.13;;;;;;;21.15;100.00;100092.66;4975630;28;20035;-77
2023/08/26 07:28:23;;;;;;;22.23;14.00;;;;;;;21.14;100.00;100069.28;4957302;28;20538;-77
2023/08/26 07:30:48;;;;;;;23.87;14.53;;;;;;;21.06;100.00;100002.69;4964002;28;20038;-77
2023/08/26 07:33:13;;;;;;;21.60;14.07;;;;;;;21.23;100.00;99994.50;4957101;28;20301;-77
2023/08/26 07:35:39;;;;;;;21.33;13.73;;;;;;;20.60;100.00;99888.09;4973834;28;20035;-77
2023/08/26 07:38:04;;;;;;;16.10;10.65;;;;;;;20.60;100.00;99983.88;4982327;28;20393;-77
2023/08/26 07:40:30;;;;;;;14.45;10.88;;;;;;;21.20;100.00;100020.28;4994413;28;20037;-76
2023/08/26 07:42:55;;;;;;;18.17;12.25;;;;;;;20.60;100.00;99917.94;4958763;28;20023;-77
2023/08/26 07:45:21;;;;;;;17.43;12.20;;;;;;;19.86;100.00;99926.22;4966177;28;20049;-76
2023/08/26 07:47:46;;;;;;;16.33;10.35;;;;;;;19.89;100.00;100012.38;4982314;28;20018;-76
2023/08/26 07:50:11;;;;;;;20.40;11.32;;;;;;;20.15;100.00;100041.59;4979214;28;20041;-76
2023/08/26 07:52:37;;;;;;;20.20;11.90;;;;;;;20.05;100.00;100017.03;4978864;28;20037;-76
2023/08/26 07:55:03;;;;;;;12.88;10.20;;;;;;;20.43;100.00;100004.69;4979066;28;20547;-76
2023/08/26 07:57:28;;;;;;;13.40;9.85;;;;;;;20.59;100.00;99906.28;4986340;28;20046;-77
2023/08/26 07:59:54;;;;;;;11.97;7.40;;;;;;;20.91;100.00;99907.50;4979978;28;20041;-76
2023/08/26 08:02:19;;;;;;;14.23;7.17;;;;;;;21.41;100.00;99882.09;4981360;28;20038;-77
2023/08/26 08:04:44;;;;;;;10.07;6.57;;;;;;;21.49;100.00;99738.56;4973821;28;20030;-76
2023/08/26 08:07:10;;;;;;;12.60;7.33;;;;;;;21.53;100.00;99749.72;4966344;28;20109;-77
2023/08/26 08:09:35;;;;;;;9.37;6.83;;;;;;;21.69;100.00;99686.28;4974238;28;20405;-76
2023/08/26 08:12:00;;;;;;;9.40;6.00;;;;;;;22.02;100.00;99729.69;4976069;28;20278;-76
2023/08/26 08:14:26;;;;;;;9.32;5.28;;;;;;;22.54;100.00;99595.59;4959258;28;20051;-76
2023/08/26 08:16:52;;;;;;;11.00;6.20;;;;;;;22.01;100.00;99454.41;4981516;28;20033;-77
2023/08/26 08:19:17;;;;;;;6.53;5.35;;;;;;;22.45;100.00;99727.75;4964548;28;20555;-76
2023/08/26 08:21:43;;;;;;;7.47;4.87;;;;;;;23.07;100.00;99600.84;4960066;28;20666;-76
2023/08/26 08:24:08;;;;;;;9.10;5.53;;;;;;;22.40;100.00;99424.00;4973970;28;20936;-76
2023/08/26 08:26:35;;;;;;;9.23;6.30;;;;;;;22.61;100.00;99340.47;4967976;28;20022;-76
2023/08/26 08:29:01;;;;;;;7.53;4.63;;;;;;;22.08;100.00;99410.66;4958088;28;20085;-77
2023/08/26 08:31:27;;;;;;;7.47;5.72;;;;;;;22.50;100.00;99502.03;4955726;28;20379;-76
2023/08/26 08:33:52;;;;;;;8.80;5.22;;;;;;;22.88;100.00;99467.22;4967247;28;20022;-76
2023/08/26 08:36:18;;;;;;;6.80;4.43;;;;;;;22.92;100.00;99394.78;4955938;28;20035;-76
2023/08/26 08:38:43;;;;;;;7.30;4.83;;;;;;;22.92;100.00;99236.97;4974562;28;20066;-76
2023/08/26 08:41:08;;;;;;;4.00;3.50;;;;;;;23.39;100.00;99152.03;4955753;28;20093;-76
2023/08/26 08:43:37;;;;;;;7.73;4.50;;;;;;;22.71;100.00;98831.81;4977336;28;20034;-76
2023/08/26 08:46:03;;;;;;;6.93;4.07;;;;;;;22.29;100.00;99001.03;4952344;28;20278;-75
2023/08/26 08:48:32;;;;;;;4.63;2.90;;;;;;;23.26;100.00;98988.53;4970628;28;20168;-76
2023/08/26 08:50:58;;;;;;;5.80;3.00;;;;;;;22.73;100.00;99152.47;4958263;28;20022;-76
2023/08/26 08:53:30;;;;;;;3.65;2.65;;;;;;;23.14;100.00;99329.16;4954032;28;20328;-76
2023/08/26 08:55:55;;;;;;;9.23;3.58;;;;;;;22.02;100.00;98952.53;4975392;28;20066;-76
2023/08/26 08:58:21;;;;;;;4.57;2.78;;;;;;;22.13;100.00;99196.75;4954063;28;20061;-76
2023/08/26 09:00:47;;;;;;;5.90;3.40;;;;;;;21.76;100.00;99161.81;4959751;28;20031;-76
2023/08/26 09:03:13;;;;;;;9.48;3.47;;;;;;;21.08;100.00;99305.91;4970969;28;20509;-75
2023/08/26 09:05:39;;;;;;;;;;;;;;;20.75;100.00;99572.91;4972655;28;20051;-75
2023/08/26 09:08:06;;;;;;;4.95;2.50;;;;;;;20.33;100.00;99467.88;4956065;28;19921;-76
2023/08/26 09:10:32;;;;;;;5.13;2.28;;;;;;;20.53;100.00;99537.69;4972173;28;20110;-76
2023/08/26 09:12:59;;;;;;;8.02;2.60;;;;;;;20.40;100.00;99593.16;4957504;28;20449;-76
2023/08/26 09:15:26;;;;;;;;;;;;;;;20.24;100.00;99763.69;4975988;28;20042;-76
2023/08/26 09:17:56;;;;;;;6.47;2.60;;;;;;;19.80;100.00;99820.47;4959922;28;20045;-75
2023/08/26 09:20:21;;;;;;;3.53;2.50;;;;;;;19.56;100.00;99751.28;4953656;28;20054;-75
2023/08/26 09:22:47;;;;;;;5.93;2.57;;;;;;;19.33;100.00;99828.81;4973927;28;20486;-75
2023/08/26 09:25:12;;;;;;;6.03;2.70;;;;;;;19.46;100.00;99852.09;4956622;28;20035;-75
2023/08/26 09:27:42;;;;;;;5.03;2.47;;;;;;;19.27;100.00;99912.84;4972490;28;20033;-75
2023/08/26 09:30:08;;;;;;;4.88;2.63;;;;;;;19.34;100.00;99927.09;4945324;28;20824;-75
2023/08/26 09:32:36;;;;;;;3.92;2.65;;;;;;;19.46;100.00;99837.75;4975875;28;20091;-75
2023/08/26 09:35:15;;;;;;;8.02;2.70;;;;;;;19.58;100.00;100009.06;4953447;28;20478;-75
2023/08/26 09:37:42;;;;;;;6.38;3.38;;;;;;;19.38;100.00;99760.44;4962275;28;20074;-75
2023/08/26 09:40:12;;;;;;;15.38;3.25;;;;;;;19.55;100.00;99771.28;4978945;28;20027;-75
2023/08/26 09:42:39;;;;;;;5.72;2.85;;;;;;;19.57;100.00;99745.63;4957816;28;20046;-76
2023/08/26 09:45:10;;;;;;;5.82;2.55;;;;;;;19.89;100.00;99755.88;4962181;28;20078;-76
2023/08/26 09:47:39;;;;;;;3.35;2.13;;;;;;;19.90;100.00;99350.44;4965057;28;20031;-76
2023/08/26 09:50:05;;;;;;;5.00;2.17;;;;;;;19.97;100.00;99207.47;4960672;28;20030;-76
2023/08/26 09:52:46;;;;;;;7.05;2.30;;;;;;;20.32;100.00;99336.13;4972746;28;20039;-75
2023/08/26 09:55:12;;;;;;;3.92;2.45;;;;;;;20.33;100.00;99197.66;4961817;28;20121;-75
2023/08/26 09:57:39;;;;;;;3.08;1.70;;;;;;;20.19;100.00;99204.63;4960470;28;20027;-75
2023/08/26 10:00:08;;;;;;;7.80;2.20;;;;;;;20.44;100.00;99291.50;4967218;28;20066;-76
2023/08/26 10:02:46;;;;;;;7.00;2.25;;;;;;;20.25;100.00;99087.03;4964535;28;20521;-75
2023/08/26 10:05:15;;;;;;;5.40;2.30;;;;;;;20.81;100.00;99117.03;4961785;28;20101;-76
2023/08/26 10:07:43;;;;;;;4.78;2.30;;;;;;;20.99;100.00;99129.25;4941511;28;20538;-76
2023/08/26 10:10:16;;;;;;;9.73;2.53;;;;;;;20.57;100.00;98986.59;4958182;28;20062;-75
2023/08/26 10:12:43;;;;;;;6.88;2.20;;;;;;;20.61;100.00;99090.69;4959293;28;20135;-76
2023/08/26 10:15:14;;;;;;;4.80;2.40;;;;;;;20.26;100.00;99001.19;4965657;28;20479;-75
2023/08/26 10:17:43;;;;;;;8.10;2.20;;;;;;;20.77;100.00;99185.66;4951681;28;20418;-75
2023/08/26 10:20:09;;;;;;;8.10;2.50;;;;;;;20.93;100.00;99248.88;4963098;28;20064;-76
2023/08/26 10:22:36;;;;;;;3.72;2.05;;;;;;;20.49;100.00;99103.66;4957609;28;20474;-76
2023/08/26 10:25:05;;;;;;;3.45;2.00;;;;;;;20.99;100.00;99150.94;4978940;28;20031;-76
2023/08/26 10:27:30;;;;;;;3.97;1.92;;;;;;;20.42;100.00;99074.09;4959420;28;20067;-76
2023/08/26 10:29:56;;;;;;;6.07;2.13;;;;;;;20.88;100.00;99217.13;4959250;28;20482;-75
2023/08/26 10:32:23;;;;;;;4.47;1.88;;;;;;;21.54;100.00;99485.25;4957369;28;20019;-75
2023/08/26 10:34:55;;;;;;;;;;;;;;;22.28;100.00;99375.34;4961111;28;20059;-76
2023/08/26 10:37:28;;;;;;;4.78;1.95;;;;;;;21.84;100.00;99106.91;4957504;28;19918;-76
2023/08/26 10:39:54;;;;;;;4.07;2.08;;;;;;;21.86;100.00;99017.00;4961814;28;20104;-76
2023/08/26 10:42:23;;;;;;;4.05;1.50;;;;;;;21.48;100.00;98808.38;4959892;28;20023;-76
2023/08/26 10:44:54;;;;;;;2.95;1.38;;;;;;;21.76;100.00;98947.25;4959842;28;20039;-75
2023/08/26 10:47:39;;;;;;;4.15;1.35;;;;;;;23.07;100.00;98730.72;4947766;28;20035;-76
2023/08/26 10:50:34;;;;;;;2.97;1.30;;;;;;;23.21;98.96;98387.81;4964713;28;20066;-76
2023/08/26 10:53:15;;;;;;;3.97;1.30;;;;;;;22.49;97.66;98293.16;4949602;28;20045;-76
2023/08/26 10:55:40;;;;;;;2.72;1.20;;;;;;;22.09;100.00;98420.44;4943630;28;20046;-75
2023/08/26 10:58:16;;;;;;;4.43;1.55;;;;;;;21.98;99.98;98465.16;4967669;28;20445;-75
2023/08/26 11:00:53;;;;;;;3.38;1.10;;;;;;;21.75;95.51;98168.94;4972931;28;20031;-76
2023/08/26 11:03:21;;;;;;;3.45;1.30;;;;;;;22.15;92.15;98057.91;4955425;28;20129;-76
2023/08/26 11:06:00;;;;;;;6.30;1.50;;;;;;;22.37;93.45;98325.47;4975977;28;20023;-76
2023/08/26 11:08:26;;;;;;;3.70;1.10;;;;;;;22.51;91.90;98282.78;4956494;28;20042;-76